Fort Myers, FL (33994)

6:24 PM EDT on August 28, 2016 (GMT -0400)
Fort Myers | | Change Station

Elev 0 ft 26.64 °N, 81.87 °W | Updated 3 minutes ago

Partly Cloudy
Partly Cloudy
83.5 °F
Feels Like 93 °F
N
1.9
Wind Variable Wind from ESE
Gusts 5.6 mph

Today
High -- | Low -- °F
--% Chance of Precip.
Yesterday
High -- | Low -- °F
Precip. -- in
Pressure 29.86 in
Visibility 10.0 miles
Clouds Few 4400 ft
Heat Index 93 °F
Dew Point 78 °F
Humidity 82%
Rainfall 0.28 in
Snow Depth Not available.
7:05 AM 7:50 PM
Waning Crescent, 13% visible
METAR KFMY 282153Z 09009KT 10SM FEW044 27/24 A2985 RMK AO2 PK WND 08029/2056 RAB2054E16B23E37 TSE10 SLP111 P0000 T02720244
Pressure 29.86 in
Visibility 10.0 miles
Clouds Few 4400 ft
Heat Index 93 °F
Dew Point 78 °F
Humidity 82%
Rainfall 0.28 in
Snow Depth Not available.
7:05 AM 7:50 PM
Waning Crescent, 13% visible
METAR KFMY 282153Z 09009KT 10SM FEW044 27/24 A2985 RMK AO2 PK WND 08029/2056 RAB2054E16B23E37 TSE10 SLP111 P0000 T02720244

10-Day Weather Forecast

Almanac

Astronomy

Aug. 28, 2016 Rise Set
Actual Time
Civil Twilight
Nautical Twilight
Astronomical Twilight
Moon
Length of Visible Light
Length of Day
Tomorrow will be .
, % of the Moon is Illuminated

Today's Extremes

State Highs State Lows

Community

WunderPhotos

Upload Photos

1,935,705 photos uploaded!

WunderBlog® & News

Nearby

Air Quality

  Air Quality AQ Index Pollutant
Not available.

Snow Depth

Station Depth Elevation

Earthquake Activity

City Distance Mag. Time & Date
Minimum magnitude displayed is 2.5.

Coastal Water Temperatures

Place Temperature

Stations

Nearby Weather Stations

Station Location Temp. Windchill Dew Point Humidity Wind Precip. Elev Updated Type
                   

Watches & Warnings

There are currently no watches in effect.